createdAt,value
2022-11-07T00:01:40.978Z,54.82
2022-11-07T00:04:07.505Z,54.70
2022-11-07T00:06:34.130Z,54.86
2022-11-07T00:09:00.637Z,54.68
2022-11-07T00:11:27.211Z,54.59
2022-11-07T00:13:54.303Z,54.55
2022-11-07T00:16:21.093Z,54.70
2022-11-07T00:18:47.624Z,54.65
2022-11-07T00:21:14.141Z,54.77
2022-11-07T00:23:42.141Z,54.79
2022-11-07T00:26:13.664Z,54.66
2022-11-07T00:28:42.737Z,54.78
2022-11-07T00:31:12.597Z,55.04
2022-11-07T00:33:39.999Z,55.11
2022-11-07T00:36:07.529Z,55.19
2022-11-07T00:38:34.410Z,55.17
2022-11-07T00:41:06.447Z,54.92
2022-11-07T00:43:33.408Z,54.74
2022-11-07T00:46:05.424Z,54.77
2022-11-07T00:48:33.003Z,54.73
2022-11-07T00:51:11.836Z,54.70
2022-11-07T00:53:39.556Z,54.71
2022-11-07T00:56:13.266Z,54.64
2022-11-07T00:58:42.566Z,54.70
2022-11-07T01:01:17.140Z,54.82
2022-11-07T01:04:03.204Z,54.97
2022-11-07T01:06:32.929Z,55.04
2022-11-07T01:08:59.708Z,55.11
2022-11-07T01:11:28.967Z,54.91
2022-11-07T01:13:58.240Z,55.10
2022-11-07T01:16:26.617Z,55.23
2022-11-07T01:18:53.906Z,55.30
2022-11-07T01:21:20.998Z,55.38
2022-11-07T01:23:47.939Z,55.48
2022-11-07T01:26:16.030Z,55.51
2022-11-07T01:28:43.272Z,55.60
2022-11-07T01:31:13.564Z,55.61
2022-11-07T01:33:40.838Z,55.57
2022-11-07T01:36:12.551Z,55.99
2022-11-07T01:38:43.241Z,56.95
2022-11-07T01:41:21.130Z,57.68
2022-11-07T01:44:24.322Z,58.61
2022-11-07T01:46:55.675Z,58.96
2022-11-07T01:49:36.785Z,58.95
2022-11-07T01:52:19.189Z,59.10
2022-11-07T01:55:02.352Z,59.32
2022-11-07T01:57:45.405Z,59.45
2022-11-07T02:00:16.882Z,59.53
2022-11-07T02:02:45.785Z,59.23
2022-11-07T02:05:19.627Z,59.04
2022-11-07T02:07:46.893Z,59.11
2022-11-07T02:10:14.744Z,58.84
2022-11-07T02:12:42.403Z,58.78
2022-11-07T02:15:10.729Z,58.78
2022-11-07T02:17:37.357Z,58.91
2022-11-07T02:20:04.787Z,59.16
2022-11-07T02:23:01.528Z,59.56
2022-11-07T02:25:29.908Z,60.10
2022-11-07T02:28:02.385Z,60.62
2022-11-07T02:30:34.418Z,60.87
2022-11-07T02:33:02.616Z,61.14
2022-11-07T02:35:37.009Z,61.42
2022-11-07T02:38:14.149Z,61.63
2022-11-07T02:40:41.577Z,61.87
2022-11-07T02:43:11.711Z,62.17
2022-11-07T02:45:42.599Z,62.52
2022-11-07T02:48:09.619Z,62.77
2022-11-07T02:50:36.510Z,62.99
2022-11-07T02:53:03.109Z,63.12
2022-11-07T02:55:29.638Z,63.24
2022-11-07T02:57:56.218Z,63.34
2022-11-07T03:00:22.802Z,63.44
2022-11-07T03:02:49.834Z,63.56
2022-11-07T03:05:19.731Z,63.63
2022-11-07T03:07:48.882Z,63.70
2022-11-07T03:10:17.093Z,63.75
2022-11-07T03:12:43.772Z,63.89
2022-11-07T03:15:11.898Z,64.07
2022-11-07T03:17:38.504Z,64.32
2022-11-07T03:20:06.071Z,64.36
2022-11-07T03:22:32.692Z,64.42
2022-11-07T03:24:59.235Z,64.57
2022-11-07T03:27:25.805Z,64.79
2022-11-07T03:29:52.555Z,64.92
2022-11-07T03:32:19.153Z,65.08
2022-11-07T03:34:45.777Z,65.20
2022-11-07T03:37:12.309Z,65.33
2022-11-07T03:39:38.846Z,65.40
2022-11-07T03:42:05.647Z,65.64
2022-11-07T03:44:32.198Z,65.61
2022-11-07T03:46:58.707Z,65.76
2022-11-07T03:49:25.295Z,66.04
2022-11-07T03:51:51.811Z,66.22
2022-11-07T03:54:18.348Z,66.24
2022-11-07T03:56:44.881Z,66.42
2022-11-07T03:59:11.410Z,66.27
2022-11-07T04:01:38.104Z,66.37
2022-11-07T04:04:04.973Z,66.48
2022-11-07T04:06:32.259Z,66.54
2022-11-07T04:08:58.790Z,66.69
2022-11-07T04:11:43.857Z,66.48
2022-11-07T04:14:28.910Z,66.40
2022-11-07T04:17:13.927Z,66.48
2022-11-07T04:19:40.429Z,66.49
2022-11-07T04:22:06.995Z,66.39
2022-11-07T04:24:33.526Z,66.33
2022-11-07T04:27:18.870Z,66.34
2022-11-07T04:29:45.505Z,66.36
2022-11-07T04:32:12.063Z,66.31
2022-11-07T04:34:38.657Z,66.39
2022-11-07T04:37:05.187Z,66.51
2022-11-07T04:39:31.751Z,66.52
2022-11-07T04:41:58.259Z,66.40
2022-11-07T04:44:24.826Z,66.53
2022-11-07T04:46:51.356Z,66.61
2022-11-07T04:49:18.583Z,66.65
2022-11-07T04:51:45.233Z,66.64
2022-11-07T04:54:16.390Z,66.72
2022-11-07T05:06:38.939Z,67.28
2022-11-07T05:09:05.498Z,67.39
2022-11-07T05:11:32.036Z,67.49
2022-11-07T05:13:58.650Z,67.59
2022-11-07T05:16:25.211Z,67.67
2022-11-07T05:18:51.721Z,67.73
2022-11-07T05:21:18.279Z,67.84
2022-11-07T05:23:45.161Z,67.90
2022-11-07T05:26:11.678Z,67.94
2022-11-07T05:28:39.777Z,68.10
2022-11-07T05:31:08.898Z,68.20
2022-11-07T05:33:35.952Z,68.30
2022-11-07T05:36:21.199Z,68.36
2022-11-07T05:38:52.039Z,68.40
2022-11-07T05:41:21.410Z,68.43
2022-11-07T05:43:48.393Z,68.57
2022-11-07T05:46:15.045Z,68.65
2022-11-07T05:48:41.655Z,68.80
2022-11-07T05:51:09.157Z,68.74
2022-11-07T05:53:36.282Z,68.63
2022-11-07T05:56:03.495Z,68.62
2022-11-07T05:58:30.179Z,68.50
2022-11-07T06:01:06.003Z,68.43
2022-11-07T06:03:33.057Z,68.40
2022-11-07T06:05:59.716Z,68.32
2022-11-07T06:08:26.323Z,68.27
2022-11-07T06:10:52.872Z,68.22
2022-11-07T06:13:19.564Z,68.14
2022-11-07T06:15:46.878Z,68.06
2022-11-07T06:18:18.710Z,67.91
2022-11-07T06:20:45.769Z,67.91
2022-11-07T06:23:12.972Z,67.99
2022-11-07T06:25:41.421Z,68.10
2022-11-07T06:28:13.845Z,68.15
2022-11-07T06:30:40.798Z,67.89
2022-11-07T06:33:13.795Z,67.75
2022-11-07T06:35:41.078Z,67.57
2022-11-07T06:38:10.478Z,67.58
2022-11-07T06:40:37.594Z,67.69
2022-11-07T06:43:11.263Z,67.62
2022-11-07T06:45:38.639Z,67.67
2022-11-07T06:48:06.020Z,67.52
2022-11-07T06:50:33.149Z,67.39
2022-11-07T06:53:05.210Z,67.51
2022-11-07T06:55:35.378Z,67.58
2022-11-07T06:58:02.662Z,67.43
2022-11-07T07:00:35.722Z,67.26
2022-11-07T07:03:02.792Z,67.03
2022-11-07T07:05:29.590Z,67.01
2022-11-07T07:07:56.447Z,66.84
2022-11-07T07:10:25.719Z,66.75
2022-11-07T07:12:53.939Z,66.73
2022-11-07T07:15:20.954Z,66.58
2022-11-07T07:17:47.546Z,66.54
2022-11-07T07:20:14.465Z,66.31
2022-11-07T07:22:41.018Z,66.08
2022-11-07T07:25:08.978Z,65.90
2022-11-07T07:27:35.566Z,65.62
2022-11-07T07:30:02.100Z,65.53
2022-11-07T07:32:28.789Z,65.29
2022-11-07T07:34:55.265Z,65.14
2022-11-07T07:37:21.791Z,65.04
2022-11-07T07:39:48.367Z,64.98
2022-11-07T07:42:14.897Z,64.69
2022-11-07T07:44:44.355Z,64.56
2022-11-07T07:47:11.647Z,64.41
2022-11-07T07:49:38.769Z,64.30
2022-11-07T07:52:05.957Z,64.03
2022-11-07T07:54:32.663Z,63.83
2022-11-07T07:56:59.268Z,63.63
2022-11-07T07:59:25.865Z,63.71
2022-11-07T08:01:56.932Z,63.57
2022-11-07T08:04:23.975Z,63.34
2022-11-07T08:06:50.550Z,63.43
2022-11-07T08:09:17.131Z,63.26
2022-11-07T08:11:43.659Z,63.04
2022-11-07T08:14:11.633Z,62.92
2022-11-07T08:16:38.344Z,62.57
2022-11-07T08:19:05.226Z,62.59
2022-11-07T08:21:31.879Z,62.45
2022-11-07T08:23:58.435Z,62.09
2022-11-07T08:26:26.036Z,61.78
2022-11-07T08:28:54.556Z,61.82
2022-11-07T08:31:21.084Z,61.77
2022-11-07T08:33:47.692Z,61.73
2022-11-07T08:36:14.621Z,61.43
2022-11-07T08:38:41.126Z,61.21
2022-11-07T08:41:08.308Z,60.87
2022-11-07T08:43:34.879Z,60.97
2022-11-07T08:46:01.490Z,60.58
2022-11-07T08:48:28.059Z,60.27
2022-11-07T08:50:57.810Z,60.04
2022-11-07T08:53:26.838Z,59.71
2022-11-07T08:56:01.729Z,59.49
2022-11-07T08:58:30.149Z,59.47
2022-11-07T09:00:58.383Z,59.47
2022-11-07T09:06:11.909Z,57.85
2022-11-07T09:08:38.513Z,57.66
2022-11-07T09:11:06.017Z,57.67
2022-11-07T09:13:34.596Z,56.73
2022-11-07T09:16:03.571Z,54.97
2022-11-07T09:18:31.070Z,52.99
2022-11-07T09:20:58.836Z,51.55
2022-11-07T09:23:25.796Z,50.31
2022-11-07T09:25:52.413Z,49.19
2022-11-07T09:28:18.913Z,46.96
2022-11-07T09:30:45.476Z,46.62
2022-11-07T09:33:12.040Z,45.01
2022-11-07T09:35:38.585Z,44.03
2022-11-07T09:38:05.175Z,42.16
2022-11-07T09:40:53.068Z,41.70
2022-11-07T09:43:53.229Z,39.00
2022-11-07T09:46:34.445Z,39.67
2022-11-07T09:49:44.939Z,36.81
2022-11-07T09:52:45.717Z,38.15
2022-11-07T09:55:42.033Z,36.81
2022-11-07T09:58:31.822Z,35.57
2022-11-07T10:01:06.019Z,35.24
2022-11-07T10:03:38.367Z,33.56
2022-11-07T10:06:28.353Z,34.83
2022-11-07T10:09:23.549Z,33.17
2022-11-07T10:12:11.516Z,33.25
2022-11-07T10:15:03.471Z,33.67
2022-11-07T10:17:47.148Z,32.65
2022-11-07T10:20:35.883Z,33.50
2022-11-07T10:23:41.272Z,32.43
2022-11-07T10:26:13.203Z,32.76
2022-11-07T10:28:48.560Z,34.12
2022-11-07T10:31:16.470Z,34.17
2022-11-07T10:33:54.813Z,33.54
2022-11-07T10:36:30.154Z,34.04
2022-11-07T10:38:58.362Z,34.06
2022-11-07T10:41:29.403Z,34.48
2022-11-07T10:44:09.929Z,34.84
2022-11-07T10:46:51.526Z,35.62
2022-11-07T10:49:23.634Z,35.88
2022-11-07T10:51:51.950Z,36.25
2022-11-07T10:54:30.932Z,36.38
2022-11-07T10:57:34.144Z,37.34
2022-11-07T11:00:00.942Z,38.06
2022-11-07T11:02:38.563Z,38.12
2022-11-07T11:05:27.502Z,38.39
2022-11-07T11:08:32.086Z,38.89
2022-11-07T11:10:58.651Z,38.77
2022-11-07T11:13:32.988Z,39.00
2022-11-07T11:16:24.330Z,39.36
2022-11-07T11:18:59.972Z,39.62
2022-11-07T11:21:38.788Z,39.86
2022-11-07T11:24:15.957Z,39.81
2022-11-07T11:26:44.647Z,40.31
2022-11-07T11:29:21.142Z,40.73
2022-11-07T11:31:51.985Z,40.99
2022-11-07T11:34:49.425Z,41.21
2022-11-07T11:37:21.716Z,41.40
2022-11-07T11:40:00.219Z,41.41
2022-11-07T11:43:03.013Z,41.67
2022-11-07T11:45:57.839Z,42.15
2022-11-07T11:49:08.590Z,42.33
2022-11-07T11:51:45.765Z,42.70
2022-11-07T11:54:15.621Z,42.94
2022-11-07T11:56:53.065Z,43.09
2022-11-07T11:59:45.605Z,43.28
2022-11-07T12:02:47.531Z,43.43
2022-11-07T12:05:45.366Z,43.45
2022-11-07T12:08:26.293Z,43.47
2022-11-07T12:11:24.255Z,43.64
2022-11-07T12:14:18.483Z,43.66
2022-11-07T12:17:11.217Z,43.65
2022-11-07T12:20:10.518Z,43.31
2022-11-07T12:23:19.558Z,43.44
2022-11-07T12:25:58.872Z,43.23
2022-11-07T12:28:54.649Z,43.27
2022-11-07T12:32:06.616Z,43.13
2022-11-07T12:35:14.691Z,43.24
2022-11-07T12:38:19.247Z,43.24
2022-11-07T12:41:26.550Z,43.68
2022-11-07T12:44:28.163Z,43.77
2022-11-07T12:46:58.597Z,43.77
2022-11-07T12:49:56.333Z,43.82
2022-11-07T12:52:41.043Z,43.51
2022-11-07T12:55:24.744Z,43.73
2022-11-07T12:57:54.426Z,44.07
2022-11-07T13:00:29.645Z,43.67
2022-11-07T13:03:41.478Z,43.74
2022-11-07T13:06:25.892Z,43.82
2022-11-07T13:09:32.790Z,43.69
2022-11-07T13:12:23.207Z,43.51
2022-11-07T13:14:50.261Z,43.53
2022-11-07T13:17:20.965Z,43.65
2022-11-07T13:20:26.386Z,43.69
2022-11-07T13:23:01.360Z,43.78
2022-11-07T13:25:33.435Z,43.96
2022-11-07T13:28:26.810Z,43.88
2022-11-07T13:31:02.455Z,43.89
2022-11-07T13:33:35.811Z,43.89
2022-11-07T13:36:27.124Z,43.80
2022-11-07T13:38:59.719Z,43.89
2022-11-07T13:41:26.620Z,43.92
2022-11-07T13:43:59.346Z,44.04
2022-11-07T13:46:39.827Z,44.16
2022-11-07T13:49:27.832Z,44.22
2022-11-07T13:52:01.680Z,44.55
2022-11-07T13:54:53.627Z,44.77
2022-11-07T13:57:35.419Z,45.04
2022-11-07T14:00:07.027Z,44.67
2022-11-07T14:03:01.594Z,44.75
2022-11-07T14:05:36.124Z,44.98
2022-11-07T14:08:05.888Z,45.23
2022-11-07T14:10:47.293Z,45.59
2022-11-07T14:13:23.449Z,45.87
2022-11-07T14:15:57.619Z,45.93
2022-11-07T14:18:32.897Z,46.10
2022-11-07T14:21:00.482Z,46.35
2022-11-07T14:23:32.640Z,46.50
2022-11-07T14:26:15.514Z,46.57
2022-11-07T14:28:42.545Z,46.75
2022-11-07T14:31:24.785Z,46.83
2022-11-07T14:33:56.294Z,47.02
2022-11-07T14:36:23.703Z,47.21
2022-11-07T14:38:54.675Z,47.42
2022-11-07T14:41:23.062Z,47.66
2022-11-07T14:43:51.134Z,47.92
2022-11-07T14:46:25.573Z,48.04
2022-11-07T14:48:53.315Z,48.22
2022-11-07T14:51:27.499Z,48.46
2022-11-07T14:54:17.177Z,48.57
2022-11-07T14:56:50.425Z,48.76
2022-11-07T14:59:18.839Z,49.05
2022-11-07T15:02:20.350Z,49.22
2022-11-07T15:04:48.068Z,49.60
2022-11-07T15:07:33.960Z,49.91
2022-11-07T15:10:17.348Z,50.32
2022-11-07T15:12:54.889Z,50.46
2022-11-07T15:15:25.712Z,50.62
2022-11-07T15:18:01.084Z,50.77
2022-11-07T15:20:30.506Z,50.93
2022-11-07T15:23:21.049Z,51.37
2022-11-07T15:26:29.763Z,51.66
2022-11-07T15:29:14.578Z,51.79
2022-11-07T15:31:48.554Z,52.00
2022-11-07T15:34:29.069Z,52.14
2022-11-07T15:37:20.370Z,52.37
2022-11-07T15:39:47.058Z,52.62
2022-11-07T15:42:13.833Z,52.78
2022-11-07T15:44:40.940Z,52.94
2022-11-07T15:47:09.977Z,53.17
2022-11-07T15:49:36.614Z,53.36
2022-11-07T15:52:03.235Z,53.46
2022-11-07T15:54:29.777Z,53.68
2022-11-07T15:57:00.837Z,53.90
2022-11-07T15:59:33.514Z,54.08
2022-11-07T16:02:01.323Z,54.14
2022-11-07T16:04:28.041Z,54.35
2022-11-07T16:06:54.618Z,54.52
2022-11-07T16:09:22.393Z,54.61
2022-11-07T16:11:49.041Z,54.71
2022-11-07T16:14:42.999Z,54.89
2022-11-07T16:17:06.606Z,55.01
2022-11-07T16:19:33.195Z,55.11
2022-11-07T16:21:59.767Z,55.02
2022-11-07T16:24:26.281Z,55.11
2022-11-07T16:26:54.151Z,55.41
2022-11-07T16:29:21.278Z,55.48
2022-11-07T16:31:47.801Z,55.57
2022-11-07T16:34:14.419Z,55.83
2022-11-07T16:36:41.158Z,55.91
2022-11-07T16:39:19.020Z,56.04
2022-11-07T16:41:45.679Z,56.28
2022-11-07T16:44:12.432Z,56.53
2022-11-07T16:46:40.913Z,56.74
2022-11-07T16:49:43.338Z,56.94
2022-11-07T16:52:17.778Z,57.10
2022-11-07T16:54:45.728Z,57.23
2022-11-07T16:57:17.810Z,57.26
2022-11-07T16:59:46.140Z,57.38
2022-11-07T17:02:23.391Z,57.62
2022-11-07T17:04:52.374Z,57.70
2022-11-07T17:07:21.981Z,57.77
2022-11-07T17:09:50.028Z,57.91
2022-11-07T17:12:20.776Z,58.08
2022-11-07T17:14:47.773Z,58.27
2022-11-07T17:17:16.581Z,58.36
2022-11-07T17:19:43.464Z,58.40
2022-11-07T17:22:11.577Z,58.50
2022-11-07T17:24:38.925Z,58.53
2022-11-07T17:27:23.642Z,58.63
2022-11-07T17:29:52.174Z,58.70
2022-11-07T17:32:19.567Z,58.76
2022-11-07T17:34:48.760Z,58.84
2022-11-07T17:37:26.056Z,58.90
2022-11-07T17:39:52.581Z,59.03
2022-11-07T17:42:19.176Z,59.10
2022-11-07T17:44:45.713Z,59.17
2022-11-07T17:47:34.248Z,59.16
2022-11-07T17:50:01.092Z,59.21
2022-11-07T17:52:28.177Z,59.31
2022-11-07T17:54:54.908Z,59.38
2022-11-07T17:57:21.629Z,59.47
2022-11-07T17:59:49.248Z,59.54
2022-11-07T18:02:18.645Z,59.72
2022-11-07T18:04:46.833Z,59.84
2022-11-07T18:07:13.552Z,59.99
2022-11-07T18:09:41.158Z,59.96
2022-11-07T18:12:09.152Z,60.09
2022-11-07T18:14:35.762Z,60.20
2022-11-07T18:17:02.290Z,60.35
2022-11-07T18:19:29.312Z,60.46
2022-11-07T18:21:55.889Z,60.60
2022-11-07T18:24:22.686Z,60.70
2022-11-07T18:26:51.356Z,60.81
2022-11-07T18:29:18.525Z,60.87
2022-11-07T18:31:47.318Z,60.81
2022-11-07T18:34:14.759Z,60.91
2022-11-07T18:36:43.545Z,61.10
2022-11-07T18:39:22.321Z,61.09
2022-11-07T18:41:50.779Z,61.14
2022-11-07T18:44:18.186Z,61.31
2022-11-07T18:46:45.054Z,61.48
2022-11-07T18:49:14.082Z,61.49
2022-11-07T18:51:42.772Z,61.50
2022-11-07T18:54:11.473Z,61.57
2022-11-07T18:56:40.994Z,61.61
2022-11-07T18:59:07.795Z,61.71
2022-11-07T19:01:34.589Z,61.69
2022-11-07T19:04:05.788Z,61.70
2022-11-07T19:06:34.744Z,61.81
2022-11-07T19:09:01.783Z,61.85
2022-11-07T19:11:31.539Z,61.89
2022-11-07T19:14:02.778Z,62.02
2022-11-07T19:16:30.487Z,62.15
2022-11-07T19:18:59.439Z,62.24
2022-11-07T19:21:26.457Z,62.40
2022-11-07T19:23:53.069Z,62.62
2022-11-07T19:26:19.845Z,62.86
2022-11-07T19:28:47.061Z,63.10
2022-11-07T19:31:14.216Z,63.39
2022-11-07T19:33:42.000Z,63.57
2022-11-07T19:36:15.148Z,63.74
2022-11-07T19:38:41.975Z,63.89
2022-11-07T19:41:10.412Z,64.08
2022-11-07T19:43:38.308Z,64.27
2022-11-07T19:46:21.891Z,64.47
2022-11-07T19:48:50.525Z,64.69
2022-11-07T19:51:23.054Z,64.78
2022-11-07T19:53:56.974Z,64.84
2022-11-07T19:56:26.475Z,65.01
2022-11-07T19:58:54.464Z,65.13
2022-11-07T20:01:28.926Z,65.29
2022-11-07T20:03:56.306Z,65.41
2022-11-07T20:06:35.899Z,65.48
2022-11-07T20:09:06.875Z,65.53
2022-11-07T20:11:33.895Z,65.63
2022-11-07T20:14:03.562Z,65.68
2022-11-07T20:16:32.977Z,65.77
2022-11-07T20:19:01.121Z,65.88
2022-11-07T20:21:28.988Z,66.03
2022-11-07T20:23:58.180Z,66.10
2022-11-07T20:26:31.001Z,66.24
2022-11-07T20:28:59.112Z,66.31
2022-11-07T20:31:32.830Z,66.37
2022-11-07T20:34:02.308Z,66.42
2022-11-07T20:36:31.159Z,66.48
2022-11-07T20:38:59.131Z,66.63
2022-11-07T20:41:27.221Z,66.71
2022-11-07T20:44:06.654Z,66.86
2022-11-07T20:46:36.722Z,66.96
2022-11-07T20:49:06.996Z,67.12
2022-11-07T20:51:34.178Z,67.21
2022-11-07T20:54:00.819Z,67.40
2022-11-07T20:56:29.043Z,67.57
2022-11-07T20:58:58.196Z,67.72
2022-11-07T21:01:36.594Z,67.86
2022-11-07T21:04:09.666Z,67.97
2022-11-07T21:06:37.282Z,68.12
2022-11-07T21:09:05.354Z,68.19
2022-11-07T21:11:32.279Z,68.20
2022-11-07T21:13:59.497Z,68.37
2022-11-07T21:16:26.393Z,68.56
2022-11-07T21:18:54.582Z,68.76
2022-11-07T21:21:27.584Z,68.98
2022-11-07T21:23:57.169Z,69.14
2022-11-07T21:26:34.929Z,69.28
2022-11-07T21:29:06.504Z,69.38
2022-11-07T21:31:35.743Z,69.47
2022-11-07T21:34:02.359Z,69.61
2022-11-07T21:36:30.862Z,69.74
2022-11-07T21:38:59.569Z,69.79
2022-11-07T21:41:27.942Z,69.82
2022-11-07T21:43:54.578Z,69.93
2022-11-07T21:46:28.770Z,69.99
2022-11-07T21:48:57.211Z,70.04
2022-11-07T21:51:33.037Z,70.08
2022-11-07T21:54:00.602Z,70.19
2022-11-07T21:56:31.181Z,70.21
2022-11-07T21:59:05.503Z,70.28
2022-11-07T22:01:35.561Z,70.35
2022-11-07T22:04:08.067Z,70.38
2022-11-07T22:06:44.644Z,70.42
2022-11-07T22:09:20.632Z,70.50
2022-11-07T22:11:49.236Z,70.54
2022-11-07T22:14:21.826Z,70.60
2022-11-07T22:16:50.477Z,70.62
2022-11-07T22:19:18.582Z,70.68
2022-11-07T22:21:45.356Z,70.74
2022-11-07T22:24:12.090Z,70.72
2022-11-07T22:26:38.724Z,70.66
2022-11-07T22:29:05.257Z,70.66
2022-11-07T22:31:32.037Z,70.61
2022-11-07T22:34:00.379Z,70.58
2022-11-07T22:36:28.695Z,70.59
2022-11-07T22:38:57.904Z,70.55
2022-11-07T22:41:28.139Z,70.58
2022-11-07T22:43:56.084Z,70.50
2022-11-07T22:46:27.379Z,70.49
2022-11-07T22:48:55.187Z,70.47
2022-11-07T22:51:31.135Z,70.54
2022-11-07T22:54:03.852Z,70.52
2022-11-07T22:56:31.182Z,70.53
2022-11-07T22:58:58.569Z,70.59
2022-11-07T23:01:28.638Z,70.54
2022-11-07T23:03:56.923Z,70.52
2022-11-07T23:06:25.178Z,70.50
2022-11-07T23:08:52.292Z,70.47
2022-11-07T23:11:47.529Z,70.56
2022-11-07T23:14:21.481Z,70.60
2022-11-07T23:16:53.634Z,70.65
2022-11-07T23:19:24.725Z,70.70
2022-11-07T23:21:54.987Z,70.70
2022-11-07T23:24:21.802Z,70.71
2022-11-07T23:26:49.243Z,70.70
2022-11-07T23:29:24.228Z,70.68
2022-11-07T23:31:52.390Z,70.70
2022-11-07T23:34:21.180Z,70.77
2022-11-07T23:36:50.892Z,70.87
2022-11-07T23:39:21.184Z,70.97
2022-11-07T23:41:48.347Z,71.06
2022-11-07T23:44:15.614Z,71.16
2022-11-07T23:47:01.935Z,71.22
2022-11-07T23:49:47.464Z,71.28
2022-11-07T23:52:14.335Z,71.36
2022-11-07T23:54:59.931Z,71.38
2022-11-07T23:57:26.958Z,71.45
